Time;durP1;ratioP1;P1;durP2;ratioP2;P2;SDS_P1;SDS_P2;PMS_P1;PMS_P2;Temp;Humidity;BMP_temperature;BMP_pressure;BME280_temperature;BME280_humidity;BME280_pressure;Samples;Min_cycle;Max_cycle;Signal;HPM_P1;HPM_P2
2022/04/07 00:01:29;;;;;;;6.53;5.93;;;9.90;95.00;;;;;;5081383;28;20177;-83
2022/04/07 00:03:54;;;;;;;6.43;5.87;;;9.90;95.00;;;;;;5078746;28;20178;-84
2022/04/07 00:06:20;;;;;;;6.30;5.80;;;10.00;94.50;;;;;;5079524;28;20175;-89
2022/04/07 00:08:46;;;;;;;5.90;5.40;;;10.10;94.50;;;;;;5074509;28;20225;-89
2022/04/07 00:11:12;;;;;;;5.83;5.43;;;10.10;94.40;;;;;;5073398;28;20668;-87
2022/04/07 00:13:38;;;;;;;6.47;5.70;;;10.00;94.50;;;;;;5074704;28;20677;-86
2022/04/07 00:16:04;;;;;;;8.53;6.33;;;9.90;95.00;;;;;;5074513;28;20224;-83
2022/04/07 00:18:30;;;;;;;7.87;6.10;;;9.90;95.10;;;;;;5074332;28;20198;-83
2022/04/07 00:20:56;;;;;;;7.13;6.40;;;9.90;95.30;;;;;;5074218;28;20181;-84
2022/04/07 00:23:23;;;;;;;6.63;6.00;;;9.90;95.50;;;;;;5074275;28;20202;-84
2022/04/07 00:25:49;;;;;;;7.00;6.30;;;9.90;95.50;;;;;;5073060;28;20189;-84
2022/04/07 00:28:15;;;;;;;6.50;5.97;;;9.90;95.40;;;;;;5073956;28;20173;-86
2022/04/07 00:30:43;;;;;;;6.47;5.87;;;9.80;95.40;;;;;;5074304;28;20171;-85
2022/04/07 00:33:10;;;;;;;6.87;5.77;;;9.80;95.50;;;;;;5074021;28;20201;-84
2022/04/07 00:35:36;;;;;;;6.50;5.90;;;9.80;95.30;;;;;;5074315;28;20627;-84
2022/04/07 00:38:03;;;;;;;6.30;5.80;;;9.80;95.40;;;;;;5074204;28;20169;-84
2022/04/07 00:40:30;;;;;;;6.00;5.47;;;9.80;95.60;;;;;;5074471;28;20198;-83
2022/04/07 00:42:56;;;;;;;7.07;6.37;;;9.80;95.50;;;;;;5072711;28;20181;-86
2022/04/07 00:45:23;;;;;;;6.53;5.93;;;9.70;95.70;;;;;;5074189;28;20169;-86
2022/04/07 00:47:50;;;;;;;6.80;6.20;;;9.70;95.90;;;;;;5074585;28;20239;-88
2022/04/07 00:50:18;;;;;;;6.97;6.40;;;9.70;96.10;;;;;;5074248;28;20221;-91
2022/04/07 00:52:55;;;;;;;6.67;5.80;;;9.70;96.10;;;;;;5074768;28;20252;-88
2022/04/07 00:55:24;;;;;;;6.73;6.20;;;9.80;96.40;;;;;;5075231;28;20671;-88
2022/04/07 00:57:50;;;;;;;6.77;6.17;;;9.80;96.40;;;;;;5075431;28;20186;-88
2022/04/07 01:00:17;;;;;;;7.00;6.33;;;9.70;96.40;;;;;;5085725;28;20161;-87
2022/04/07 01:02:42;;;;;;;9.03;6.70;;;9.60;96.50;;;;;;5087056;28;20645;-92
2022/04/07 01:05:09;;;;;;;7.30;6.60;;;9.70;96.70;;;;;;5074479;28;20181;-90
2022/04/07 01:07:37;;;;;;;6.63;6.10;;;9.80;96.70;;;;;;5074769;28;20225;-87
2022/04/07 01:10:08;;;;;;;11.30;6.93;;;9.90;96.70;;;;;;5074407;28;20224;-92
2022/04/07 01:12:37;;;;;;;10.87;6.93;;;9.80;96.80;;;;;;5074361;28;20658;-91
2022/04/07 01:15:05;;;;;;;7.50;6.90;;;10.00;96.70;;;;;;5081146;28;20180;-90
2022/04/07 01:17:34;;;;;;;7.50;6.60;;;10.00;96.40;;;;;;5082680;28;20221;-88
2022/04/07 01:20:03;;;;;;;11.10;7.17;;;9.90;96.80;;;;;;5078197;28;20172;-83
2022/04/07 01:22:29;;;;;;;7.70;6.90;;;9.80;96.90;;;;;;5081220;28;20177;-90
2022/04/07 01:24:56;;;;;;;7.50;6.77;;;9.80;96.90;;;;;;5088768;28;20185;-84
2022/04/07 01:27:24;;;;;;;9.43;6.70;;;9.90;97.00;;;;;;5075767;28;20190;-91
2022/04/07 01:29:52;;;;;;;16.47;6.80;;;9.90;97.00;;;;;;5074233;28;20253;-93
2022/04/07 01:32:40;;;;;;;7.53;6.73;;;10.00;96.50;;;;;;5074210;28;20662;-92
2022/04/07 01:35:06;;;;;;;8.03;7.07;;;10.10;96.40;;;;;;5073135;28;20529;-92
2022/04/07 01:37:33;;;;;;;7.77;6.70;;;10.10;96.40;;;;;;5073656;28;20176;-83
2022/04/07 01:40:01;;;;;;;7.57;6.63;;;10.10;96.40;;;;;;5073483;28;20704;-83
2022/04/07 01:42:28;;;;;;;10.23;6.70;;;10.10;96.50;;;;;;5073831;28;20181;-84
2022/04/07 01:44:57;;;;;;;8.10;7.30;;;10.10;96.70;;;;;;5074037;28;20180;-87
2022/04/07 01:47:23;;;;;;;8.17;6.33;;;10.10;96.70;;;;;;5078077;28;20167;-85
2022/04/07 01:49:58;;;;;;;8.33;6.63;;;10.00;96.80;;;;;;5086077;28;20172;-82
2022/04/07 01:52:25;;;;;;;9.20;6.40;;;9.90;97.40;;;;;;5081482;28;20194;-83
2022/04/07 01:54:52;;;;;;;7.37;6.00;;;9.90;97.40;;;;;;5078397;28;20688;-83
2022/04/07 01:57:23;;;;;;;6.90;6.20;;;10.00;96.80;;;;;;5078231;28;20171;-83
2022/04/07 01:59:52;;;;;;;5.63;5.23;;;10.10;96.70;;;;;;5077094;28;20246;-83
2022/04/07 02:02:21;;;;;;;5.70;4.97;;;10.20;96.50;;;;;;5077071;28;20177;-83
2022/04/07 02:05:00;;;;;;;7.70;5.20;;;10.30;96.30;;;;;;5077702;28;20181;-83
2022/04/07 02:07:30;;;;;;;4.90;4.60;;;10.40;96.10;;;;;;5076085;28;20261;-83
2022/04/07 02:09:56;;;;;;;5.47;4.97;;;10.40;96.10;;;;;;5082543;28;20174;-81
2022/04/07 02:12:25;;;;;;;4.90;4.60;;;10.50;95.80;;;;;;5084969;28;20205;-82
2022/04/07 02:14:51;;;;;;;5.73;5.10;;;10.50;95.80;;;;;;5080167;28;20174;-82
2022/04/07 02:17:20;;;;;;;5.50;5.00;;;10.50;95.80;;;;;;5085146;28;20612;-82
2022/04/07 02:19:59;;;;;;;5.33;4.83;;;10.40;95.80;;;;;;5083824;28;20589;-82
2022/04/07 02:22:28;;;;;;;6.90;5.50;;;10.40;96.10;;;;;;5080150;28;20196;-83
2022/04/07 02:24:55;;;;;;;6.63;5.00;;;10.30;96.10;;;;;;5087097;28;20167;-82
2022/04/07 02:27:21;;;;;;;5.73;5.13;;;10.20;96.20;;;;;;5085272;28;20229;-84
2022/04/07 02:29:47;;;;;;;5.60;5.20;;;10.20;96.20;;;;;;5080458;28;20179;-83
2022/04/07 02:32:13;;;;;;;5.43;5.03;;;10.20;96.20;;;;;;5083609;28;20229;-85
2022/04/07 02:34:40;;;;;;;5.67;5.07;;;10.20;96.50;;;;;;5084233;28;20172;-93
2022/04/07 02:37:06;;;;;;;5.03;4.63;;;10.20;96.30;;;;;;5079972;28;20198;-93
2022/04/07 02:39:32;;;;;;;5.20;4.63;;;10.20;96.20;;;;;;5078781;28;20639;-88
2022/04/07 02:41:58;;;;;;;5.47;4.90;;;10.20;96.40;;;;;;5078904;28;20174;-93
2022/04/07 02:44:24;;;;;;;7.10;5.10;;;10.10;96.40;;;;;;5088117;28;20181;-88
2022/04/07 02:46:50;;;;;;;5.40;5.00;;;10.20;96.40;;;;;;5092612;28;20172;-94
2022/04/07 02:49:17;;;;;;;6.03;5.43;;;10.10;96.40;;;;;;5082277;28;20530;-92
2022/04/07 02:51:43;;;;;;;5.53;5.00;;;10.10;96.80;;;;;;5077703;28;20684;-86
2022/04/07 02:54:09;;;;;;;5.77;5.27;;;10.00;96.70;;;;;;5081158;28;20177;-84
2022/04/07 02:56:35;;;;;;;6.63;5.33;;;10.00;96.90;;;;;;5077932;28;20194;-84
2022/04/07 02:59:01;;;;;;;20.20;6.17;;;9.90;97.30;;;;;;5076944;28;20179;-84
2022/04/07 03:01:27;;;;;;;6.03;5.43;;;9.90;97.50;;;;;;5080714;28;20179;-87
2022/04/07 03:03:55;;;;;;;7.63;6.27;;;9.80;97.40;;;;;;5077517;28;20265;-86
2022/04/07 03:06:24;;;;;;;8.10;6.90;;;9.80;97.60;;;;;;5078151;28;20182;-85
2022/04/07 03:08:51;;;;;;;6.10;5.50;;;9.80;97.60;;;;;;5077692;28;20166;-86
2022/04/07 03:11:17;;;;;;;6.53;5.63;;;9.80;97.60;;;;;;5076200;28;20502;-87
2022/04/07 03:13:43;;;;;;;6.60;6.00;;;9.70;97.70;;;;;;5076562;28;20178;-84
2022/04/07 03:16:09;;;;;;;6.90;6.27;;;9.70;97.70;;;;;;5077443;28;20174;-84
2022/04/07 03:18:35;;;;;;;6.10;5.50;;;9.60;97.80;;;;;;5077375;28;20174;-90
2022/04/07 03:21:01;;;;;;;8.50;6.23;;;9.60;97.90;;;;;;5075755;28;20575;-83
2022/04/07 03:23:27;;;;;;;6.83;6.13;;;9.50;98.00;;;;;;5075480;28;20176;-83
2022/04/07 03:25:53;;;;;;;5.67;5.20;;;9.60;98.30;;;;;;5077967;28;20171;-84
2022/04/07 03:28:20;;;;;;;6.07;5.47;;;9.50;97.50;;;;;;5076780;28;20593;-84
2022/04/07 03:30:46;;;;;;;5.90;5.40;;;9.40;97.50;;;;;;5075340;28;20239;-85
2022/04/07 03:33:11;;;;;;;5.97;4.63;;;9.40;97.60;;;;;;5075703;28;20666;-88
2022/04/07 03:35:37;;;;;;;5.60;5.10;;;9.40;97.60;;;;;;5076001;28;20212;-89
2022/04/07 03:38:07;;;;;;;5.83;5.27;;;9.30;97.50;;;;;;5076743;28;20179;-90
2022/04/07 03:40:34;;;;;;;5.97;5.47;;;9.40;97.60;;;;;;5075811;28;20175;-90
2022/04/07 03:43:03;;;;;;;5.80;5.37;;;9.40;97.50;;;;;;5075736;28;20178;-91
2022/04/07 03:45:30;;;;;;;5.63;5.03;;;9.40;97.50;;;;;;5075796;28;20209;-82
2022/04/07 03:47:55;;;;;;;6.30;5.70;;;9.30;97.70;;;;;;5074864;28;20179;-84
2022/04/07 03:50:21;;;;;;;5.93;5.47;;;9.30;97.70;;;;;;5074821;28;20224;-84
2022/04/07 03:52:47;;;;;;;6.43;5.83;;;9.30;97.80;;;;;;5075261;28;20213;-86
2022/04/07 03:55:13;;;;;;;6.27;5.20;;;9.20;97.80;;;;;;5075017;28;20179;-86
2022/04/07 03:57:39;;;;;;;6.27;5.77;;;9.20;97.90;;;;;;5075425;28;20186;-88
2022/04/07 04:00:06;;;;;;;6.33;5.87;;;9.20;97.90;;;;;;5075732;28;20240;-86
2022/04/07 04:02:32;;;;;;;7.23;5.60;;;9.20;97.90;;;;;;5075041;28;20652;-88
2022/04/07 04:04:59;;;;;;;6.60;5.93;;;9.20;97.90;;;;;;5075128;28;20256;-87
2022/04/07 04:07:25;;;;;;;6.33;5.80;;;9.10;98.10;;;;;;5074655;28;20515;-85
2022/04/07 04:09:51;;;;;;;6.37;5.77;;;9.20;98.20;;;;;;5074173;28;20678;-85
2022/04/07 04:12:17;;;;;;;6.40;5.80;;;9.20;98.00;;;;;;5074991;28;20290;-86
2022/04/07 04:14:43;;;;;;;9.20;6.10;;;9.20;98.10;;;;;;5074736;28;20260;-82
2022/04/07 04:17:08;;;;;;;6.37;5.77;;;9.20;98.20;;;;;;5074724;28;20680;-83
2022/04/07 04:19:34;;;;;;;6.13;5.50;;;9.20;98.20;;;;;;5074847;28;20179;-81
2022/04/07 04:22:00;;;;;;;6.40;5.80;;;9.10;98.10;;;;;;5077242;28;20175;-91
2022/04/07 04:24:26;;;;;;;6.23;5.23;;;9.10;98.20;;;;;;5085676;28;20199;-89
2022/04/07 04:26:52;;;;;;;6.57;5.27;;;9.10;98.10;;;;;;5092525;28;20234;-86
2022/04/07 04:29:18;;;;;;;6.53;5.47;;;9.10;98.00;;;;;;5087293;28;20640;-86
2022/04/07 04:31:44;;;;;;;5.33;4.83;;;9.00;98.00;;;;;;5093363;28;20272;-88
2022/04/07 04:34:09;;;;;;;7.93;5.33;;;9.00;97.90;;;;;;5087150;28;20182;-87
2022/04/07 04:36:35;;;;;;;7.23;5.67;;;9.10;97.90;;;;;;5077011;28;20189;-82
2022/04/07 04:39:01;;;;;;;9.10;5.80;;;9.10;97.90;;;;;;5077922;28;20654;-83
2022/04/07 04:41:27;;;;;;;6.73;6.03;;;9.00;97.90;;;;;;5083765;28;20185;-83
2022/04/07 04:43:54;;;;;;;11.13;6.30;;;9.10;97.90;;;;;;5083128;28;20213;-83
2022/04/07 04:46:20;;;;;;;9.47;6.50;;;9.10;97.90;;;;;;5080079;28;20168;-87
2022/04/07 04:48:46;;;;;;;6.70;5.90;;;9.10;98.00;;;;;;5075435;28;20641;-87
2022/04/07 04:51:12;;;;;;;6.83;5.90;;;9.10;97.90;;;;;;5072765;28;20227;-83
2022/04/07 04:53:38;;;;;;;6.23;5.30;;;9.10;97.90;;;;;;5074227;28;20686;-88
2022/04/07 04:56:04;;;;;;;6.73;5.20;;;9.20;97.80;;;;;;5074521;28;20190;-85
2022/04/07 04:58:30;;;;;;;9.03;5.60;;;9.30;97.70;;;;;;5074507;28;20630;-89
2022/04/07 05:00:57;;;;;;;5.80;5.20;;;9.30;97.80;;;;;;5073904;28;20178;-84
2022/04/07 05:03:23;;;;;;;6.43;4.93;;;9.30;97.80;;;;;;5074086;28;20652;-87
2022/04/07 05:05:49;;;;;;;6.10;5.50;;;9.20;97.70;;;;;;5074237;28;20175;-88
2022/04/07 05:08:15;;;;;;;10.33;5.87;;;9.30;97.70;;;;;;5075237;28;20172;-84
2022/04/07 05:10:41;;;;;;;5.80;5.37;;;9.40;97.70;;;;;;5074235;28;20173;-83
2022/04/07 05:13:06;;;;;;;6.20;5.53;;;9.50;97.60;;;;;;5073678;28;20212;-83
2022/04/07 05:15:32;;;;;;;9.57;6.10;;;9.50;97.60;;;;;;5074067;28;20180;-88
2022/04/07 05:17:58;;;;;;;7.30;5.27;;;9.60;97.50;;;;;;5075371;28;20176;-89
2022/04/07 05:20:24;;;;;;;7.33;5.40;;;9.60;97.40;;;;;;5076523;28;20245;-90
2022/04/07 05:22:50;;;;;;;7.80;5.70;;;9.70;97.50;;;;;;5078132;28;20174;-84
2022/04/07 05:25:15;;;;;;;6.63;6.03;;;9.70;97.50;;;;;;5077487;28;20173;-87
2022/04/07 05:27:45;;;;;;;11.47;5.50;;;9.80;97.60;;;;;;5079313;28;20182;-87
2022/04/07 05:30:12;;;;;;;9.13;5.63;;;9.80;97.60;;;;;;5080100;28;20197;-87
2022/04/07 05:32:39;;;;;;;9.83;6.20;;;9.90;97.70;;;;;;5079147;28;20695;-84
2022/04/07 05:35:06;;;;;;;7.80;5.40;;;9.90;97.70;;;;;;5077087;28;20631;-84
2022/04/07 05:37:32;;;;;;;10.07;6.20;;;10.00;97.20;;;;;;5078907;28;20206;-88
2022/04/07 05:39:57;;;;;;;6.73;5.97;;;10.00;97.20;;;;;;5080084;28;20216;-84
2022/04/07 05:42:23;;;;;;;18.53;6.73;;;10.10;97.00;;;;;;5078889;28;20175;-85
2022/04/07 05:44:49;;;;;;;17.40;7.30;;;10.20;97.20;;;;;;5078912;28;20163;-89
2022/04/07 05:47:15;;;;;;;18.70;6.30;;;10.10;97.20;;;;;;5078109;28;20193;-84
2022/04/07 05:49:41;;;;;;;14.33;6.70;;;10.10;97.30;;;;;;5076661;28;20660;-85
2022/04/07 05:52:07;;;;;;;16.97;6.90;;;10.10;97.40;;;;;;5077171;28;20205;-82
2022/04/07 05:54:33;;;;;;;13.23;6.60;;;10.20;97.30;;;;;;5077139;28;20199;-82
2022/04/07 05:56:59;;;;;;;11.33;6.53;;;10.20;97.10;;;;;;5077832;28;20583;-83
2022/04/07 05:59:25;;;;;;;13.90;6.57;;;10.20;97.00;;;;;;5077659;28;20170;-82
2022/04/07 06:01:51;;;;;;;6.27;5.57;;;10.30;97.00;;;;;;5076818;28;20171;-83
2022/04/07 06:04:17;;;;;;;7.93;5.93;;;10.30;96.90;;;;;;5076934;28;20174;-82
2022/04/07 06:06:43;;;;;;;13.10;6.33;;;10.40;97.10;;;;;;5075741;28;20258;-83
2022/04/07 06:09:09;;;;;;;12.80;6.03;;;10.40;96.70;;;;;;5076940;28;20175;-81
2022/04/07 06:11:35;;;;;;;11.33;6.17;;;10.50;96.70;;;;;;5078469;28;20304;-86
2022/04/07 06:14:01;;;;;;;14.60;5.53;;;10.60;96.70;;;;;;5080090;28;20278;-85
2022/04/07 06:16:27;;;;;;;13.03;6.10;;;10.60;96.70;;;;;;5090275;28;20174;-85
2022/04/07 06:18:54;;;;;;;14.47;5.90;;;10.70;96.60;;;;;;5094315;28;20174;-89
2022/04/07 06:21:23;;;;;;;10.30;5.93;;;10.80;96.80;;;;;;5096817;28;20182;-87
2022/04/07 06:23:49;;;;;;;13.73;6.60;;;10.80;96.80;;;;;;5095338;28;20186;-84
2022/04/07 06:26:17;;;;;;;13.47;6.70;;;10.90;96.80;;;;;;5094393;28;20227;-81
2022/04/07 06:28:43;;;;;;;12.00;6.37;;;11.00;96.90;;;;;;5093915;28;20172;-81
2022/04/07 06:31:09;;;;;;;7.83;6.37;;;11.00;96.70;;;;;;5085013;28;20203;-84
2022/04/07 06:33:35;;;;;;;8.20;6.40;;;11.00;96.70;;;;;;5084652;28;20241;-82
2022/04/07 06:36:03;;;;;;;12.77;6.80;;;11.10;96.80;;;;;;5077755;28;20248;-85
2022/04/07 06:38:30;;;;;;;12.00;7.03;;;11.10;97.10;;;;;;5077140;28;20249;-89
2022/04/07 06:41:03;;;;;;;19.93;7.20;;;11.20;97.30;;;;;;5076591;28;20175;-85
2022/04/07 06:43:29;;;;;;;15.37;7.93;;;11.30;97.20;;;;;;5076912;28;20286;-88
2022/04/07 06:45:55;;;;;;;12.60;7.17;;;11.30;96.90;;;;;;5077034;28;20667;-88
2022/04/07 06:48:21;;;;;;;10.87;7.60;;;11.20;97.00;;;;;;5077347;28;20179;-83
2022/04/07 06:50:47;;;;;;;8.70;7.63;;;11.20;97.10;;;;;;5076482;28;20223;-88
2022/04/07 06:53:12;;;;;;;18.47;7.93;;;11.20;97.10;;;;;;5077328;28;20209;-89
2022/04/07 06:55:39;;;;;;;9.80;6.87;;;11.20;96.80;;;;;;5078297;28;20176;-87
2022/04/07 06:58:08;;;;;;;9.40;7.00;;;11.20;96.80;;;;;;5079483;28;20175;-88
2022/04/07 07:00:40;;;;;;;14.83;7.43;;;11.20;96.60;;;;;;5077224;28;20213;-89
2022/04/07 07:03:06;;;;;;;11.03;7.37;;;11.30;96.80;;;;;;5076958;28;20656;-88
2022/04/07 07:05:34;;;;;;;10.73;7.60;;;11.40;96.90;;;;;;5078113;28;20198;-85
2022/04/07 07:08:13;;;;;;;11.90;7.17;;;11.40;97.70;;;;;;5078712;28;20198;-90
2022/04/07 07:10:40;;;;;;;18.47;7.83;;;11.40;96.70;;;;;;5077941;28;20175;-90
2022/04/07 07:13:06;;;;;;;11.53;7.10;;;11.50;96.70;;;;;;5078111;28;20198;-87
2022/04/07 07:15:31;;;;;;;14.53;7.77;;;11.60;96.80;;;;;;5076180;28;20691;-87
2022/04/07 07:17:57;;;;;;;14.60;7.40;;;11.60;97.20;;;;;;5076150;28;20221;-88
2022/04/07 07:20:23;;;;;;;14.43;7.73;;;11.70;97.40;;;;;;5075999;28;20179;-85
2022/04/07 07:22:49;;;;;;;21.33;8.13;;;11.80;97.30;;;;;;5076096;28;20173;-89
2022/04/07 07:25:15;;;;;;;11.57;7.00;;;11.80;97.30;;;;;;5076090;28;20168;-87
2022/04/07 07:27:43;;;;;;;10.17;7.67;;;11.90;97.50;;;;;;5075811;28;20638;-88
2022/04/07 07:30:11;;;;;;;16.73;7.87;;;11.90;97.10;;;;;;5077184;28;20257;-89
2022/04/07 07:32:38;;;;;;;13.20;8.47;;;12.00;97.10;;;;;;5077447;28;20258;-88
2022/04/07 07:35:05;;;;;;;11.83;7.30;;;12.10;96.70;;;;;;5081212;28;20187;-87
2022/04/07 07:37:31;;;;;;;15.70;8.63;;;12.20;96.40;;;;;;5079518;28;20595;-87
2022/04/07 07:39:57;;;;;;;13.40;8.57;;;12.40;96.40;;;;;;5077720;28;20181;-84
2022/04/07 07:42:23;;;;;;;13.60;7.43;;;12.50;96.30;;;;;;5077469;28;20182;-87
2022/04/07 07:44:49;;;;;;;11.53;7.47;;;12.70;96.20;;;;;;5076103;28;20166;-90
2022/04/07 07:47:15;;;;;;;11.27;7.50;;;12.80;95.80;;;;;;5076569;28;20173;-90
2022/04/07 07:49:41;;;;;;;11.00;7.50;;;12.90;95.70;;;;;;5075983;28;20217;-88
2022/04/07 07:52:07;;;;;;;14.37;8.67;;;13.00;95.80;;;;;;5076972;28;20199;-90
2022/04/07 07:54:33;;;;;;;14.80;8.60;;;13.10;95.70;;;;;;5075853;28;20185;-90
2022/04/07 07:56:59;;;;;;;11.53;8.20;;;13.20;95.70;;;;;;5076354;28;20538;-86
2022/04/07 07:59:24;;;;;;;16.63;8.70;;;13.30;95.20;;;;;;5076204;28;20634;-85
2022/04/07 08:01:50;;;;;;;20.50;9.00;;;13.50;95.30;;;;;;5077973;28;20182;-84
2022/04/07 08:04:16;;;;;;;15.30;8.20;;;13.60;95.10;;;;;;5092385;28;20187;-86
2022/04/07 08:06:42;;;;;;;12.30;8.17;;;13.80;94.90;;;;;;5098316;28;20159;-87
2022/04/07 08:09:13;;;;;;;10.83;8.23;;;13.90;94.70;;;;;;5078357;28;20182;-86
2022/04/07 08:11:43;;;;;;;14.83;8.60;;;14.00;94.50;;;;;;5082455;28;20205;-91
2022/04/07 08:14:09;;;;;;;11.30;8.47;;;14.20;94.60;;;;;;5076141;28;20168;-91
2022/04/07 08:16:37;;;;;;;15.17;7.60;;;14.30;94.30;;;;;;5076821;28;20174;-82
2022/04/07 08:19:04;;;;;;;10.40;7.60;;;14.50;94.00;;;;;;5075003;28;20175;-86
2022/04/07 08:21:31;;;;;;;13.63;7.30;;;14.60;93.90;;;;;;5074737;28;20181;-85
2022/04/07 08:23:56;;;;;;;10.80;7.37;;;14.70;93.70;;;;;;5074801;28;20182;-86
2022/04/07 08:26:22;;;;;;;8.57;6.70;;;14.80;93.60;;;;;;5074894;28;20179;-87
2022/04/07 08:28:48;;;;;;;12.20;6.57;;;14.90;93.60;;;;;;5073400;28;20206;-87
2022/04/07 08:31:14;;;;;;;9.33;7.03;;;14.90;93.60;;;;;;5074813;28;20181;-87
2022/04/07 08:33:40;;;;;;;9.97;6.77;;;15.00;93.80;;;;;;5075359;28;20687;-89
2022/04/07 08:36:06;;;;;;;11.13;6.80;;;15.10;93.80;;;;;;5075181;28;20253;-90
2022/04/07 08:38:32;;;;;;;11.70;6.30;;;15.20;93.90;;;;;;5075429;28;20175;-90
2022/04/07 08:40:59;;;;;;;10.40;5.87;;;15.30;93.70;;;;;;5076341;28;20173;-89
2022/04/07 08:43:25;;;;;;;13.83;6.17;;;15.40;93.50;;;;;;5075490;28;20177;-90
2022/04/07 08:45:51;;;;;;;13.10;6.10;;;15.60;93.50;;;;;;5075086;28;20174;-89
2022/04/07 08:48:17;;;;;;;11.67;5.93;;;15.80;93.10;;;;;;5073983;28;20690;-91
2022/04/07 08:50:44;;;;;;;6.17;5.57;;;16.00;93.10;;;;;;5074788;28;20222;-91
2022/04/07 08:53:12;;;;;;;6.70;5.47;;;16.00;93.10;;;;;;5073415;28;20210;-90
2022/04/07 08:55:38;;;;;;;8.77;5.10;;;16.10;93.00;;;;;;5073963;28;20163;-82
2022/04/07 08:58:05;;;;;;;6.47;4.67;;;16.10;92.70;;;;;;5083635;28;20553;-81
2022/04/07 09:00:32;;;;;;;7.57;3.97;;;16.10;91.90;;;;;;5084653;28;20167;-81
2022/04/07 09:02:58;;;;;;;5.20;3.80;;;15.90;91.90;;;;;;5080045;28;20556;-84
2022/04/07 09:05:26;;;;;;;4.40;3.10;;;15.90;91.50;;;;;;5076990;28;20175;-83
2022/04/07 09:07:54;;;;;;;3.67;3.37;;;15.90;91.30;;;;;;5075894;28;20275;-83
2022/04/07 09:10:24;;;;;;;6.47;3.20;;;15.90;91.40;;;;;;5072635;28;20183;-86
2022/04/07 09:12:53;;;;;;;3.97;3.17;;;16.00;91.20;;;;;;5074148;28;20198;-85
2022/04/07 09:15:20;;;;;;;5.87;3.20;;;16.10;90.80;;;;;;5074560;28;20182;-88
2022/04/07 09:17:50;;;;;;;3.53;3.20;;;16.20;90.60;;;;;;5074158;28;20172;-87
2022/04/07 09:20:16;;;;;;;6.90;3.37;;;16.40;89.90;;;;;;5074363;28;20171;-83
2022/04/07 09:22:42;;;;;;;3.93;3.53;;;16.50;90.10;;;;;;5074119;28;20220;-85
2022/04/07 09:25:10;;;;;;;2.90;2.70;;;16.50;89.60;;;;;;5073340;28;20175;-87
2022/04/07 09:27:40;;;;;;;3.33;3.10;;;16.70;90.00;;;;;;5074486;28;20163;-82
2022/04/07 09:30:08;;;;;;;3.97;3.57;;;16.90;88.70;;;;;;5074117;28;20171;-83
2022/04/07 09:32:44;;;;;;;3.57;3.27;;;16.90;88.50;;;;;;5076844;28;20203;-87
2022/04/07 09:35:11;;;;;;;2.70;2.50;;;17.10;87.60;;;;;;5077596;28;20159;-87
2022/04/07 09:37:42;;;;;;;2.93;2.30;;;17.10;85.90;;;;;;5074561;28;20240;-82
2022/04/07 09:40:16;;;;;;;2.60;1.93;;;17.20;85.40;;;;;;5075410;28;20177;-82
2022/04/07 09:42:42;;;;;;;1.40;1.40;;;17.30;84.60;;;;;;5075007;28;20156;-86
2022/04/07 09:45:12;;;;;;;1.40;1.40;;;17.30;83.60;;;;;;5077456;28;20195;-84
2022/04/07 09:47:42;;;;;;;1.70;1.60;;;17.30;84.00;;;;;;5083482;28;20745;-86
2022/04/07 09:50:32;;;;;;;1.67;1.57;;;17.20;82.40;;;;;;5088754;28;20261;-89
2022/04/07 09:53:04;;;;;;;1.33;1.10;;;17.10;82.80;;;;;;5092031;28;20211;-86
2022/04/07 09:55:37;;;;;;;1.17;1.07;;;17.10;79.70;;;;;;5082012;28;20631;-90
2022/04/07 09:58:06;;;;;;;1.23;1.20;;;17.10;79.70;;;;;;5076155;28;20179;-90
2022/04/07 10:00:33;;;;;;;1.60;1.20;;;17.10;80.40;;;;;;5075160;28;20172;-91
2022/04/07 10:03:00;;;;;;;1.87;1.27;;;17.30;79.30;;;;;;5074565;28;20167;-91
2022/04/07 10:05:29;;;;;;;1.33;1.33;;;17.30;80.00;;;;;;5075542;28;20283;-92
2022/04/07 10:07:57;;;;;;;1.87;1.30;;;17.30;80.30;;;;;;5077908;28;20171;-87
2022/04/07 10:10:24;;;;;;;1.30;1.30;;;17.20;80.70;;;;;;5078029;28;20181;-88
2022/04/07 10:12:51;;;;;;;1.20;1.00;;;17.10;79.30;;;;;;5076917;28;20207;-87
2022/04/07 10:15:18;;;;;;;1.30;1.20;;;17.00;78.90;;;;;;5078830;28;20561;-90
2022/04/07 10:17:45;;;;;;;1.97;1.20;;;16.90;78.80;;;;;;5079156;28;20178;-86
2022/04/07 10:20:12;;;;;;;1.40;1.40;;;16.80;79.30;;;;;;5079565;28;20170;-88
2022/04/07 10:23:03;;;;;;;1.77;1.77;;;16.90;80.20;;;;;;5091145;28;20167;-81
2022/04/07 10:25:31;;;;;;;2.13;1.80;;;16.90;81.30;;;;;;5094985;28;20221;-82
2022/04/07 10:28:02;;;;;;;1.47;1.47;;;16.90;81.10;;;;;;5090609;28;20170;-80
2022/04/07 10:30:30;;;;;;;2.30;1.60;;;16.90;80.40;;;;;;5099563;28;20164;-83
2022/04/07 10:32:58;;;;;;;1.50;1.40;;;16.90;81.50;;;;;;5097693;28;20206;-83
2022/04/07 10:35:29;;;;;;;1.50;1.50;;;16.90;81.40;;;;;;5096500;28;20167;-83
2022/04/07 10:37:56;;;;;;;2.23;1.60;;;17.20;79.40;;;;;;5091914;28;20171;-83
2022/04/07 10:40:33;;;;;;;1.97;1.87;;;17.10;78.60;;;;;;5084620;28;20164;-85
2022/04/07 10:43:18;;;;;;;2.10;1.50;;;17.00;79.20;;;;;;5079979;28;20186;-84
2022/04/07 10:45:46;;;;;;;3.00;1.27;;;16.90;78.20;;;;;;5077719;28;20622;-85
2022/04/07 10:48:24;;;;;;;2.37;1.13;;;16.80;79.40;;;;;;5079550;28;20175;-82
2022/04/07 10:51:04;;;;;;;1.90;1.30;;;16.90;78.40;;;;;;5079024;28;20694;-82
2022/04/07 10:53:35;;;;;;;1.77;1.17;;;16.80;77.50;;;;;;5078215;28;20252;-83
2022/04/07 10:56:24;;;;;;;1.17;1.17;;;16.80;77.00;;;;;;5077395;28;20202;-86
2022/04/07 10:58:52;;;;;;;1.40;1.27;;;16.90;77.70;;;;;;5076068;28;20175;-89
2022/04/07 11:01:32;;;;;;;1.40;1.40;;;17.10;79.00;;;;;;5076430;28;20172;-84
2022/04/07 11:04:22;;;;;;;2.23;1.40;;;17.10;80.60;;;;;;5077060;28;20160;-84
2022/04/07 11:07:10;;;;;;;1.97;1.20;;;17.20;78.60;;;;;;5077432;28;20156;-82
2022/04/07 11:09:45;;;;;;;1.40;1.30;;;17.20;78.50;;;;;;5077130;28;20172;-87
2022/04/07 11:12:16;;;;;;;1.20;1.20;;;17.20;78.80;;;;;;5076087;28;20209;-87
2022/04/07 11:14:43;;;;;;;1.40;1.30;;;17.20;77.80;;;;;;5076571;28;20517;-84
2022/04/07 11:17:13;;;;;;;1.30;1.30;;;17.20;76.00;;;;;;5076359;28;20250;-86
2022/04/07 11:19:58;;;;;;;1.30;1.20;;;17.30;76.70;;;;;;5075347;28;20179;-85
2022/04/07 11:23:01;;;;;;;1.20;1.20;;;17.30;75.80;;;;;;5076674;28;20187;-85
2022/04/07 11:25:31;;;;;;;1.20;1.20;;;17.30;76.30;;;;;;5079105;28;20179;-86
2022/04/07 11:28:20;;;;;;;1.30;1.30;;;17.30;75.50;;;;;;5083559;28;20657;-88
2022/04/07 11:30:49;;;;;;;1.27;1.27;;;17.30;74.80;;;;;;5086695;28;20225;-82
2022/04/07 11:33:18;;;;;;;1.43;1.33;;;17.30;75.90;;;;;;5080495;28;20554;-87
2022/04/07 11:35:59;;;;;;;2.47;1.40;;;17.30;76.30;;;;;;5078032;28;20178;-88
2022/04/07 11:38:35;;;;;;;1.30;1.30;;;17.30;76.10;;;;;;5083855;28;20171;-89
2022/04/07 11:41:17;;;;;;;1.30;1.30;;;17.40;77.00;;;;;;5096444;28;20143;-86
2022/04/07 11:43:44;;;;;;;2.50;1.20;;;17.40;76.60;;;;;;5081633;28;20171;-89
2022/04/07 11:46:13;;;;;;;1.10;1.10;;;17.50;75.10;;;;;;5077033;28;20536;-89
2022/04/07 11:48:40;;;;;;;1.10;1.10;;;17.60;74.70;;;;;;5077251;28;20230;-91
2022/04/07 11:51:14;;;;;;;1.27;1.17;;;17.70;75.50;;;;;;5076765;28;20222;-90
2022/04/07 11:53:52;;;;;;;1.10;1.10;;;17.70;75.30;;;;;;5076552;28;20207;-90
2022/04/07 11:56:25;;;;;;;3.70;1.47;;;17.90;76.00;;;;;;5076639;28;20626;-84
2022/04/07 11:58:57;;;;;;;1.33;1.23;;;18.00;75.20;;;;;;5076862;28;20166;-86
2022/04/07 12:01:24;;;;;;;2.13;1.10;;;18.00;74.10;;;;;;5077180;28;20181;-85
2022/04/07 12:03:52;;;;;;;1.10;1.10;;;18.00;73.60;;;;;;5077739;28;20174;-84
2022/04/07 12:06:22;;;;;;;1.63;1.10;;;17.90;73.40;;;;;;5075031;28;20245;-89
2022/04/07 12:08:47;;;;;;;0.90;0.90;;;18.00;73.10;;;;;;5076081;28;20566;-86
2022/04/07 12:11:13;;;;;;;1.30;1.30;;;18.00;73.00;;;;;;5077725;28;20167;-91
2022/04/07 12:13:39;;;;;;;1.90;1.30;;;18.00;73.50;;;;;;5087257;28;20209;-90
2022/04/07 12:16:09;;;;;;;2.23;1.10;;;18.10;73.90;;;;;;5081148;28;20174;-87
2022/04/07 12:18:35;;;;;;;1.40;1.40;;;18.20;73.80;;;;;;5081596;28;20674;-82
2022/04/07 12:21:05;;;;;;;1.53;1.50;;;18.20;72.50;;;;;;5076513;28;20171;-83
2022/04/07 12:23:31;;;;;;;1.53;1.53;;;18.30;73.50;;;;;;5077135;28;20683;-86
2022/04/07 12:25:59;;;;;;;1.40;1.30;;;18.30;73.40;;;;;;5077522;28;20178;-85
2022/04/07 12:28:34;;;;;;;1.53;1.43;;;18.30;73.10;;;;;;5076323;28;20570;-85
2022/04/07 12:31:00;;;;;;;1.50;1.40;;;18.50;72.70;;;;;;5074396;28;20649;-82
2022/04/07 12:33:43;;;;;;;1.37;1.37;;;18.60;72.90;;;;;;5075139;28;20267;-82
2022/04/07 12:36:29;;;;;;;1.23;1.17;;;18.90;72.30;;;;;;5073379;28;20181;-82
2022/04/07 12:39:05;;;;;;;1.50;1.50;;;19.10;71.70;;;;;;5074790;28;20191;-82
2022/04/07 12:41:40;;;;;;;1.50;1.50;;;19.10;71.80;;;;;;5075394;28;20169;-83
2022/04/07 12:44:08;;;;;;;3.50;1.50;;;19.30;71.90;;;;;;5075319;28;20563;-83
2022/04/07 12:46:54;;;;;;;1.73;1.70;;;19.40;71.70;;;;;;5074663;28;20254;-83
2022/04/07 12:49:37;;;;;;;1.67;1.40;;;19.50;72.00;;;;;;5074381;28;20163;-82
2022/04/07 12:52:14;;;;;;;1.83;1.80;;;19.50;72.30;;;;;;5074675;28;20558;-83
2022/04/07 12:55:01;;;;;;;1.60;1.60;;;19.40;71.60;;;;;;5073670;28;20170;-82